createdAt,value
2022-10-04T12:10:00.949Z,53056.00
2022-10-04T12:10:58.625Z,52032.00
2022-10-04T12:11:58.614Z,51520.00
2022-10-04T12:12:58.584Z,51072.00
2022-10-04T12:13:58.578Z,51680.00
2022-10-04T12:14:58.552Z,51232.00
2022-10-04T12:15:58.593Z,49440.00
2022-10-04T12:16:58.579Z,49568.00
2022-10-04T12:17:58.505Z,52736.00
2022-10-04T12:18:58.499Z,55744.00
2022-10-04T12:19:58.479Z,54176.00
2022-10-04T12:20:58.467Z,53376.00
2022-10-04T12:21:58.444Z,54592.00
2022-10-04T12:22:58.451Z,54144.00
2022-10-04T12:23:58.425Z,53344.00
2022-10-04T12:24:58.409Z,53984.00
2022-10-04T12:25:58.397Z,52736.00
2022-10-04T12:26:58.371Z,53376.00
2022-10-04T12:27:58.384Z,53472.00
2022-10-04T12:28:58.350Z,51712.00
2022-10-04T12:29:58.325Z,51040.00
2022-10-04T12:30:58.321Z,53216.00
2022-10-04T12:31:58.373Z,54496.00
2022-10-04T12:32:58.438Z,53856.00
2022-10-04T12:33:58.267Z,54208.00
2022-10-04T12:34:58.267Z,54496.00
2022-10-04T12:35:58.251Z,55136.00
2022-10-04T12:36:58.225Z,52992.00
2022-10-04T12:37:58.233Z,52992.00
2022-10-04T12:38:58.203Z,52736.00
2022-10-04T12:39:58.189Z,52288.00
2022-10-04T12:40:58.168Z,53920.00
2022-10-04T12:41:58.167Z,53312.00
2022-10-04T12:42:58.161Z,53408.00
2022-10-04T12:43:58.126Z,45888.00
2022-10-04T12:44:58.115Z,44480.00
2022-10-04T12:45:58.270Z,32736.00
2022-10-04T12:46:58.095Z,35872.00
2022-10-04T12:47:58.087Z,36672.00
2022-10-04T12:48:58.064Z,46656.00
2022-10-04T12:49:58.046Z,50976.00
2022-10-04T12:50:58.041Z,53024.00
2022-10-04T12:51:58.023Z,53632.00
2022-10-04T12:52:58.030Z,52192.00
2022-10-04T12:53:58.946Z,25984.00
2022-10-04T12:54:57.999Z,36672.00
2022-10-04T12:55:57.969Z,54656.00
2022-10-04T12:56:57.962Z,54208.00
2022-10-04T12:57:57.949Z,50944.00
2022-10-04T12:58:57.939Z,49728.00
2022-10-04T12:59:57.926Z,50784.00
2022-10-04T13:01:02.108Z,50752.00
2022-10-04T13:01:57.949Z,51200.00
2022-10-04T13:02:57.877Z,51072.00
2022-10-04T13:03:57.889Z,52480.00
2022-10-04T13:04:57.860Z,53216.00
2022-10-04T13:05:57.851Z,48576.00
2022-10-04T13:06:57.837Z,47904.00
2022-10-04T13:07:57.817Z,45024.00
2022-10-04T13:08:57.814Z,41088.00
2022-10-04T13:10:22.460Z,40128.00
2022-10-04T13:10:57.783Z,42016.00
2022-10-04T13:11:57.767Z,46368.00
2022-10-04T13:12:59.799Z,50272.00
2022-10-04T13:13:57.754Z,50784.00
2022-10-04T13:14:57.737Z,50848.00
2022-10-04T13:17:57.690Z,51424.00
2022-10-04T13:18:57.689Z,49376.00
2022-10-04T13:19:57.674Z,49920.00
2022-10-04T13:20:57.653Z,50304.00
2022-10-04T13:21:57.653Z,50432.00
2022-10-04T13:22:58.274Z,49120.00
2022-10-04T13:23:57.644Z,47360.00
2022-10-04T13:24:57.620Z,45408.00
2022-10-04T13:26:02.696Z,45248.00
2022-10-04T13:26:57.594Z,46080.00
2022-10-04T13:27:57.624Z,47872.00
2022-10-04T13:28:57.615Z,48576.00
2022-10-04T13:29:57.550Z,51520.00
2022-10-04T13:30:57.546Z,51360.00
2022-10-04T13:31:57.585Z,49536.00
2022-10-04T13:32:57.520Z,48032.00
2022-10-04T13:33:57.528Z,48896.00
2022-10-04T13:34:57.531Z,49728.00
2022-10-04T13:35:57.478Z,50432.00
2022-10-04T13:36:57.465Z,50336.00
2022-10-04T13:37:57.462Z,47360.00
2022-10-04T13:38:57.463Z,46976.00
2022-10-04T13:39:57.440Z,45888.00
2022-10-04T13:40:57.417Z,48224.00
2022-10-04T13:41:57.422Z,48512.00
2022-10-04T13:42:57.406Z,48512.00
2022-10-04T13:43:57.408Z,49280.00
2022-10-04T13:44:57.373Z,50784.00
2022-10-04T13:45:57.441Z,51520.00
2022-10-04T13:46:57.350Z,52192.00
2022-10-04T13:47:57.344Z,49856.00
2022-10-04T13:48:57.355Z,48000.00
2022-10-04T13:49:57.321Z,49248.00
2022-10-04T13:50:57.315Z,48096.00
2022-10-04T13:51:57.301Z,46464.00
2022-10-04T13:52:57.294Z,45792.00
2022-10-04T13:53:57.289Z,45792.00
2022-10-04T13:54:57.266Z,47360.00
2022-10-04T13:55:57.264Z,47072.00
2022-10-04T13:56:57.251Z,46592.00
2022-10-04T13:57:57.259Z,39200.00
2022-10-04T13:58:57.234Z,17248.00
2022-10-04T14:09:30.714Z,40352.00
2022-10-04T14:10:30.692Z,41440.00
2022-10-04T14:11:30.673Z,40768.00
2022-10-04T14:12:30.665Z,40256.00
2022-10-04T14:13:30.659Z,38944.00
2022-10-04T14:14:30.662Z,38464.00
2022-10-04T14:15:30.637Z,38208.00
2022-10-04T14:16:30.675Z,38304.00
2022-10-04T14:17:30.614Z,38880.00
2022-10-04T14:18:30.607Z,38208.00
2022-10-04T14:19:30.604Z,37632.00
2022-10-04T14:20:30.576Z,36192.00
2022-10-04T14:21:30.574Z,37440.00
2022-10-04T14:22:30.605Z,38336.00
2022-10-04T14:23:30.555Z,37792.00
2022-10-04T14:24:30.568Z,36736.00
2022-10-04T14:25:30.581Z,36288.00
2022-10-04T14:26:30.518Z,36736.00
2022-10-04T14:27:30.532Z,36704.00
2022-10-04T14:28:30.559Z,36960.00
2022-10-04T14:29:30.489Z,36160.00
2022-10-04T14:30:30.496Z,35264.00
2022-10-04T14:31:36.044Z,34400.00
2022-10-04T14:32:30.463Z,35104.00
2022-10-04T14:33:30.452Z,36160.00
2022-10-04T14:34:30.455Z,34976.00
2022-10-04T14:35:30.447Z,34560.00
2022-10-04T14:36:30.582Z,25536.00
2022-10-04T14:37:30.423Z,10276.00
2022-10-04T14:38:30.434Z,4980.00
2022-10-04T14:39:30.397Z,4644.00
2022-10-04T14:40:30.528Z,4544.00
